Time;durP1;ratioP1;P1;durP2;ratioP2;P2;SDS_P1;SDS_P2;PMS_P1;PMS_P2;Temp;Humidity;BMP_temperature;BMP_pressure;BME280_temperature;BME280_humidity;BME280_pressure;Samples;Min_cycle;Max_cycle;Signal;HPM_P1;HPM_P2
2022/12/02 00:01:19;;;;;;;10.63;2.50;;;;;;;;;;5025439;28;20433;-72
2022/12/02 00:03:47;;;;;;;0.77;0.77;;;;;;;;;;5009040;28;20580;-73
2022/12/02 00:06:20;;;;;;;0.70;0.70;;;;;;;;;;5009608;28;20799;-72
2022/12/02 00:08:49;;;;;;;0.70;0.67;;;;;;;;;;5022029;28;20456;-74
2022/12/02 00:11:21;;;;;;;0.70;0.60;;;;;;;;;;5024470;28;21004;-73
2022/12/02 00:13:48;;;;;;;0.60;0.60;;;;;;;;;;5011473;28;20469;-73
2022/12/02 00:16:18;;;;;;;0.70;0.70;;;;;;;;;;5027353;28;20453;-73
2022/12/02 00:18:46;;;;;;;0.70;0.67;;;;;;;;;;5009085;28;20548;-72
2022/12/02 00:21:14;;;;;;;0.67;0.60;;;;;;;;;;5010138;28;20448;-72
2022/12/02 00:23:41;;;;;;;0.70;0.70;;;;;;;;;;4983961;28;20454;-72
2022/12/02 00:26:09;;;;;;;0.70;0.70;;;;;;;;;;5024155;28;20520;-72
2022/12/02 00:28:36;;;;;;;0.60;0.60;;;;;;;;;;5026029;28;20548;-73
2022/12/02 00:31:03;;;;;;;0.77;0.77;;;;;;;;;;5009331;28;20481;-74
2022/12/02 00:33:31;;;;;;;0.60;0.60;;;;;;;;;;5008676;28;20450;-72
2022/12/02 00:35:59;;;;;;;0.70;0.60;;;;;;;;;;5026739;28;20848;-72
2022/12/02 00:38:26;;;;;;;0.70;0.70;;;;;;;;;;5002857;28;20454;-72
2022/12/02 00:40:53;;;;;;;2.90;2.80;;;;;;;;;;5025785;28;20553;-73
2022/12/02 00:48:52;;;;;;;0.67;0.60;;;;;;;;;;5023698;28;20493;-72
2022/12/02 00:51:19;;;;;;;0.60;0.60;;;;;;;;;;5009059;28;20880;-72
2022/12/02 00:53:45;;;;;;;0.70;0.70;;;;;;;;;;5010584;28;21297;-72
2022/12/02 00:56:12;;;;;;;0.70;0.70;;;;;;;;;;5025700;28;20460;-72
2022/12/02 00:58:42;;;;;;;0.70;0.63;;;;;;;;;;5011597;28;20191;-72
2022/12/02 01:01:09;;;;;;;0.70;0.60;;;;;;;;;;4982666;28;20457;-74
2022/12/02 01:03:36;;;;;;;0.60;0.60;;;;;;;;;;5027118;28;20468;-72
2022/12/02 01:06:11;;;;;;;0.70;0.70;;;;;;;;;;5025733;28;20468;-75
2022/12/02 01:08:37;;;;;;;0.70;0.70;;;;;;;;;;5013155;28;20547;-72
2022/12/02 01:11:04;;;;;;;0.70;0.60;;;;;;;;;;5025331;28;20847;-72
2022/12/02 01:13:32;;;;;;;0.60;0.60;;;;;;;;;;5010323;28;20469;-72
2022/12/02 01:16:00;;;;;;;0.70;0.60;;;;;;;;;;5014391;28;20438;-73
2022/12/02 01:18:28;;;;;;;1.10;1.00;;;;;;;;;;5012911;28;20520;-72
2022/12/02 01:20:59;;;;;;;0.70;0.60;;;;;;;;;;5029196;28;20475;-73
2022/12/02 01:23:26;;;;;;;0.60;0.60;;;;;;;;;;4996281;28;20453;-73
2022/12/02 01:25:52;;;;;;;0.70;0.70;;;;;;;;;;5028588;28;20954;-72
2022/12/02 01:28:20;;;;;;;0.70;0.70;;;;;;;;;;5011667;28;20442;-73
2022/12/02 01:30:48;;;;;;;0.67;0.60;;;;;;;;;;5029137;28;20442;-73
2022/12/02 01:33:16;;;;;;;0.63;0.63;;;;;;;;;;5028890;28;20469;-73
2022/12/02 01:35:43;;;;;;;0.70;0.70;;;;;;;;;;5028214;28;20441;-72
2022/12/02 01:38:11;;;;;;;1.65;1.13;;;;;;;;;;5027345;28;20511;-72
2022/12/02 01:40:38;;;;;;;0.70;0.60;;;;;;;;;;5014062;28;20234;-72
2022/12/02 01:43:08;;;;;;;0.67;0.60;;;;;;;;;;4981620;28;20479;-73
2022/12/02 01:45:36;;;;;;;0.60;0.60;;;;;;;;;;5026521;28;20542;-74
2022/12/02 01:48:03;;;;;;;1.80;1.20;;;;;;;;;;5024566;28;20454;-74
2022/12/02 01:50:35;;;;;;;0.70;0.60;;;;;;;;;;5027588;28;20449;-72
2022/12/02 01:53:02;;;;;;;0.60;0.60;;;;;;;;;;5001708;28;21155;-75
2022/12/02 01:55:31;;;;;;;4.20;1.80;;;;;;;;;;5011473;28;20487;-73
2022/12/02 01:58:03;;;;;;;0.70;0.63;;;;;;;;;;5013664;28;20440;-73
2022/12/02 02:00:31;;;;;;;0.70;0.70;;;;;;;;;;5027715;28;20510;-73
2022/12/02 02:02:58;;;;;;;0.70;0.60;;;;;;;;;;4999897;28;20462;-74
2022/12/02 02:05:29;;;;;;;0.70;0.70;;;;;;;;;;5025833;28;20461;-73
2022/12/02 02:08:03;;;;;;;7.50;2.30;;;;;;;;;;5008344;28;20453;-73
2022/12/02 02:10:31;;;;;;;0.70;0.60;;;;;;;;;;5025969;28;20910;-74
2022/12/02 02:12:58;;;;;;;2.07;1.27;;;;;;;;;;5026888;28;20202;-73
2022/12/02 02:15:26;;;;;;;0.70;0.60;;;;;;;;;;5027168;28;20532;-74
2022/12/02 02:17:53;;;;;;;0.90;0.90;;;;;;;;;;5012686;28;20512;-74
2022/12/02 02:20:21;;;;;;;0.93;0.93;;;;;;;;;;5012379;28;20516;-73
2022/12/02 02:22:51;;;;;;;0.70;0.70;;;;;;;;;;5027252;28;20469;-74
2022/12/02 02:25:19;;;;;;;4.60;1.07;;;;;;;;;;5022790;28;20454;-73
2022/12/02 02:27:50;;;;;;;0.70;0.60;;;;;;;;;;5002899;28;20611;-75
2022/12/02 02:30:18;;;;;;;0.70;0.70;;;;;;;;;;5027721;28;20442;-73
2022/12/02 02:32:48;;;;;;;0.70;0.60;;;;;;;;;;5027591;28;20911;-74
2022/12/02 02:35:23;;;;;;;1.80;1.70;;;;;;;;;;5004525;28;20465;-72
2022/12/02 02:37:56;;;;;;;0.70;0.63;;;;;;;;;;5027645;28;20458;-72
2022/12/02 02:40:31;;;;;;;4.73;1.43;;;;;;;;;;5010159;28;20484;-71
2022/12/02 02:43:11;;;;;;;0.60;0.60;;;;;;;;;;5027395;28;20464;-72
2022/12/02 02:45:41;;;;;;;0.63;0.60;;;;;;;;;;5008285;28;20947;-73
2022/12/02 02:48:11;;;;;;;0.60;0.60;;;;;;;;;;5010037;28;20543;-73
2022/12/02 02:50:46;;;;;;;0.70;0.70;;;;;;;;;;5027045;28;20191;-74
2022/12/02 02:53:23;;;;;;;0.60;0.60;;;;;;;;;;5026236;28;20457;-74
2022/12/02 02:55:59;;;;;;;0.60;0.60;;;;;;;;;;5010108;28;20880;-72
2022/12/02 02:58:32;;;;;;;0.70;0.70;;;;;;;;;;5011231;28;20541;-73
2022/12/02 03:01:07;;;;;;;0.60;0.60;;;;;;;;;;5000637;28;20461;-72
2022/12/02 03:03:39;;;;;;;0.63;0.60;;;;;;;;;;4994628;28;20473;-72
2022/12/02 03:06:13;;;;;;;0.70;0.70;;;;;;;;;;5007485;28;20458;-74
2022/12/02 03:08:46;;;;;;;0.70;0.60;;;;;;;;;;5009890;28;20552;-74
2022/12/02 03:11:15;;;;;;;0.70;0.60;;;;;;;;;;5023501;28;20429;-72
2022/12/02 03:14:05;;;;;;;0.60;0.60;;;;;;;;;;4999900;28;20426;-75
2022/12/02 03:16:44;;;;;;;0.67;0.67;;;;;;;;;;5025457;28;20449;-72
2022/12/02 03:19:13;;;;;;;0.70;0.70;;;;;;;;;;4998793;28;20478;-74
2022/12/02 03:21:49;;;;;;;0.60;0.60;;;;;;;;;;5012393;28;20473;-75
2022/12/02 03:24:23;;;;;;;0.70;0.60;;;;;;;;;;5023100;28;20438;-74
2022/12/02 03:26:54;;;;;;;0.60;0.60;;;;;;;;;;5025474;28;20449;-74
2022/12/02 03:29:27;;;;;;;0.70;0.70;;;;;;;;;;4999351;28;20457;-73
2022/12/02 03:31:58;;;;;;;1.10;1.00;;;;;;;;;;5007192;28;20450;-73
2022/12/02 03:34:27;;;;;;;0.70;0.70;;;;;;;;;;5024874;28;20881;-74
2022/12/02 03:36:57;;;;;;;0.67;0.67;;;;;;;;;;5025727;28;20541;-76
2022/12/02 03:39:27;;;;;;;0.70;0.60;;;;;;;;;;5026781;28;20442;-72
2022/12/02 03:42:00;;;;;;;0.70;0.70;;;;;;;;;;5025177;28;20888;-73
2022/12/02 03:44:33;;;;;;;0.70;0.60;;;;;;;;;;5012052;28;20496;-72
2022/12/02 03:47:04;;;;;;;0.83;0.83;;;;;;;;;;5023389;28;20914;-73
2022/12/02 03:49:34;;;;;;;0.60;0.60;;;;;;;;;;5008678;28;20458;-72
2022/12/02 03:52:04;;;;;;;23.13;1.73;;;;;;;;;;5011027;28;20434;-73
2022/12/02 03:54:57;;;;;;;0.83;0.83;;;;;;;;;;5009532;28;20445;-72
2022/12/02 03:57:32;;;;;;;0.60;0.60;;;;;;;;;;5011564;28;20433;-72
2022/12/02 04:00:05;;;;;;;0.60;0.60;;;;;;;;;;5009451;28;20878;-73
2022/12/02 04:02:43;;;;;;;0.70;0.70;;;;;;;;;;5025812;28;20858;-73
2022/12/02 04:05:14;;;;;;;0.70;0.70;;;;;;;;;;5006776;28;20954;-74
2022/12/02 04:07:43;;;;;;;0.60;0.60;;;;;;;;;;5025954;28;20433;-72
2022/12/02 04:10:12;;;;;;;0.70;0.70;;;;;;;;;;5009669;28;20448;-73
2022/12/02 04:12:47;;;;;;;0.70;0.70;;;;;;;;;;5025402;28;20461;-73
2022/12/02 04:15:14;;;;;;;0.60;0.60;;;;;;;;;;5009908;28;20447;-74
2022/12/02 04:17:41;;;;;;;0.60;0.60;;;;;;;;;;5011306;28;20552;-73
2022/12/02 04:20:08;;;;;;;0.60;0.60;;;;;;;;;;5010753;28;20422;-75
2022/12/02 04:22:35;;;;;;;0.70;0.70;;;;;;;;;;5011198;28;20445;-73
2022/12/02 04:25:03;;;;;;;0.70;0.70;;;;;;;;;;5009540;28;20520;-74
2022/12/02 04:27:30;;;;;;;0.70;0.60;;;;;;;;;;5010693;28;20840;-73
2022/12/02 04:29:58;;;;;;;0.70;0.60;;;;;;;;;;5008999;28;20477;-73
2022/12/02 04:32:25;;;;;;;0.60;0.60;;;;;;;;;;5024727;28;20474;-72
2022/12/02 04:34:52;;;;;;;2.60;2.40;;;;;;;;;;5000400;28;20545;-72
2022/12/02 04:37:19;;;;;;;0.60;0.60;;;;;;;;;;5002082;28;20461;-72
2022/12/02 04:39:46;;;;;;;0.60;0.60;;;;;;;;;;5030466;28;20445;-72
2022/12/02 04:42:15;;;;;;;0.60;0.60;;;;;;;;;;5002933;28;20465;-72
2022/12/02 04:44:45;;;;;;;0.70;0.60;;;;;;;;;;5013285;28;20507;-73
2022/12/02 04:47:15;;;;;;;0.60;0.60;;;;;;;;;;5012623;28;20492;-72
2022/12/02 04:49:41;;;;;;;0.60;0.60;;;;;;;;;;5030125;28;20473;-74
2022/12/02 04:52:08;;;;;;;0.60;0.60;;;;;;;;;;5012680;28;20421;-73
2022/12/02 04:54:35;;;;;;;0.60;0.60;;;;;;;;;;5028410;28;20441;-73
2022/12/02 04:57:02;;;;;;;1.37;1.27;;;;;;;;;;4999595;28;20512;-72
2022/12/02 04:59:28;;;;;;;0.70;0.70;;;;;;;;;;5012926;28;20461;-72
2022/12/02 05:02:15;;;;;;;0.70;0.70;;;;;;;;;;5014556;28;20976;-72
2022/12/02 05:04:43;;;;;;;1.10;1.00;;;;;;;;;;5013360;28;20499;-74
2022/12/02 05:07:09;;;;;;;0.70;0.70;;;;;;;;;;5002084;28;20465;-71
2022/12/02 05:09:36;;;;;;;0.60;0.60;;;;;;;;;;5012166;28;20438;-72
2022/12/02 05:12:03;;;;;;;0.60;0.60;;;;;;;;;;5027461;28;20437;-74
2022/12/02 05:14:29;;;;;;;0.70;0.70;;;;;;;;;;5011811;28;20450;-72
2022/12/02 05:16:57;;;;;;;0.70;0.60;;;;;;;;;;5026436;28;20457;-74
2022/12/02 05:19:25;;;;;;;0.70;0.60;;;;;;;;;;5012194;28;20459;-71
2022/12/02 05:21:52;;;;;;;1.20;0.90;;;;;;;;;;5012517;28;20461;-73
2022/12/02 05:24:19;;;;;;;0.63;0.60;;;;;;;;;;4997372;28;20827;-72
2022/12/02 05:26:46;;;;;;;0.80;0.80;;;;;;;;;;5013173;28;20480;-72
2022/12/02 05:29:12;;;;;;;0.63;0.60;;;;;;;;;;5011824;28;20434;-72
2022/12/02 05:31:39;;;;;;;0.60;0.60;;;;;;;;;;5013061;28;20538;-74
2022/12/02 05:34:06;;;;;;;0.70;0.70;;;;;;;;;;5026392;28;21354;-73
2022/12/02 05:36:35;;;;;;;0.70;0.70;;;;;;;;;;5027629;28;20461;-73
2022/12/02 05:39:02;;;;;;;0.60;0.60;;;;;;;;;;5029197;28;20501;-73
2022/12/02 05:41:30;;;;;;;0.60;0.60;;;;;;;;;;5011971;28;20565;-73
2022/12/02 05:44:00;;;;;;;0.63;0.63;;;;;;;;;;5014307;28;20447;-72
2022/12/02 05:46:27;;;;;;;0.63;0.60;;;;;;;;;;5012140;28;20436;-73
2022/12/02 05:48:54;;;;;;;0.70;0.70;;;;;;;;;;5009527;28;20545;-73
2022/12/02 05:51:21;;;;;;;0.70;0.70;;;;;;;;;;5011760;28;20452;-75
2022/12/02 05:53:49;;;;;;;0.70;0.70;;;;;;;;;;4997061;28;20520;-75
2022/12/02 05:56:20;;;;;;;0.70;0.70;;;;;;;;;;5011523;28;21028;-73
2022/12/02 05:58:47;;;;;;;0.70;0.60;;;;;;;;;;5002424;28;20454;-74
2022/12/02 06:01:18;;;;;;;0.70;0.60;;;;;;;;;;5027160;28;20497;-74
2022/12/02 06:03:45;;;;;;;0.60;0.60;;;;;;;;;;5012351;28;20453;-74
2022/12/02 06:06:12;;;;;;;0.65;0.60;;;;;;;;;;5027451;28;20848;-74
2022/12/02 06:08:39;;;;;;;0.70;0.70;;;;;;;;;;5010482;28;20553;-75
2022/12/02 06:11:17;;;;;;;0.65;0.60;;;;;;;;;;5027521;28;20511;-72
2022/12/02 06:13:44;;;;;;;0.60;0.60;;;;;;;;;;5025706;28;20628;-72
2022/12/02 06:16:17;;;;;;;0.60;0.60;;;;;;;;;;5003512;28;20449;-72
2022/12/02 06:18:46;;;;;;;0.70;0.70;;;;;;;;;;5012640;28;20560;-72
2022/12/02 06:21:14;;;;;;;0.60;0.60;;;;;;;;;;5013347;28;20505;-72
2022/12/02 06:23:43;;;;;;;0.63;0.63;;;;;;;;;;5013398;28;20548;-73
2022/12/02 06:26:13;;;;;;;0.70;0.67;;;;;;;;;;5026901;28;21065;-74
2022/12/02 06:28:43;;;;;;;0.60;0.60;;;;;;;;;;5026317;28;20485;-73
2022/12/02 06:31:13;;;;;;;0.60;0.60;;;;;;;;;;5012480;28;20425;-74
2022/12/02 06:33:41;;;;;;;0.70;0.70;;;;;;;;;;5012061;28;20458;-73
2022/12/02 06:36:10;;;;;;;0.70;0.60;;;;;;;;;;5026122;28;21057;-73
2022/12/02 06:38:42;;;;;;;0.70;0.70;;;;;;;;;;5027079;28;20850;-72
2022/12/02 06:41:13;;;;;;;0.60;0.60;;;;;;;;;;5011634;28;20869;-73
2022/12/02 06:45:03;;;;;;;0.60;0.60;;;;;;;;;;5013082;28;20537;-73
2022/12/02 06:46:31;;;;;;;1.03;1.00;;;;;;;;;;5025640;28;20457;-73
2022/12/02 06:48:58;;;;;;;0.70;0.70;;;;;;;;;;4994712;28;20449;-73
2022/12/02 06:51:25;;;;;;;0.70;0.60;;;;;;;;;;5011434;28;20949;-73
2022/12/02 06:53:52;;;;;;;0.60;0.60;;;;;;;;;;5010138;28;20437;-75
2022/12/02 06:56:21;;;;;;;1.30;1.20;;;;;;;;;;5010329;28;20441;-73
2022/12/02 06:58:53;;;;;;;0.80;0.80;;;;;;;;;;5026951;28;20524;-73
2022/12/02 07:01:21;;;;;;;0.70;0.67;;;;;;;;;;5011801;28;20469;-73
2022/12/02 07:04:14;;;;;;;1.00;1.00;;;;;;;;;;5012147;28;21270;-72
2022/12/02 07:06:42;;;;;;;0.70;0.70;;;;;;;;;;5000995;28;21483;-73
2022/12/02 07:09:13;;;;;;;3.53;1.37;;;;;;;;;;4998555;28;21024;-72
2022/12/02 07:11:50;;;;;;;1.43;0.87;;;;;;;;;;5022084;28;20500;-72
2022/12/02 07:14:31;;;;;;;0.60;0.60;;;;;;;;;;5008535;28;20524;-75
2022/12/02 07:17:00;;;;;;;0.80;0.80;;;;;;;;;;5008111;28;20454;-73
2022/12/02 07:19:38;;;;;;;1.73;1.63;;;;;;;;;;5012482;28;20437;-72
2022/12/02 07:22:15;;;;;;;0.60;0.60;;;;;;;;;;5010974;28;20472;-73
2022/12/02 07:24:44;;;;;;;0.60;0.60;;;;;;;;;;5009860;28;20445;-72
2022/12/02 07:27:16;;;;;;;1.63;1.17;;;;;;;;;;5021939;28;20456;-72
2022/12/02 07:29:44;;;;;;;0.60;0.60;;;;;;;;;;5025339;28;20456;-74
2022/12/02 07:32:12;;;;;;;0.63;0.63;;;;;;;;;;5011385;28;20996;-73
2022/12/02 07:34:41;;;;;;;0.60;0.60;;;;;;;;;;5011304;28;20472;-75
2022/12/02 07:37:08;;;;;;;0.70;0.70;;;;;;;;;;5007343;28;20441;-72
2022/12/02 07:39:35;;;;;;;0.70;0.70;;;;;;;;;;5012004;28;20445;-73
2022/12/02 07:42:02;;;;;;;0.70;0.70;;;;;;;;;;4997754;28;20465;-72
2022/12/02 07:44:29;;;;;;;0.70;0.70;;;;;;;;;;5011325;28;20454;-72
2022/12/02 07:46:58;;;;;;;0.67;0.60;;;;;;;;;;5011265;28;20532;-74
2022/12/02 07:49:25;;;;;;;0.70;0.70;;;;;;;;;;4987156;28;20450;-72
2022/12/02 07:51:52;;;;;;;0.80;0.80;;;;;;;;;;5026745;28;20448;-73
2022/12/02 07:54:19;;;;;;;0.60;0.60;;;;;;;;;;5008116;28;20802;-73
2022/12/02 07:56:46;;;;;;;0.70;0.70;;;;;;;;;;5023285;28;20499;-74
2022/12/02 07:59:13;;;;;;;0.70;0.70;;;;;;;;;;5010947;28;20533;-73
2022/12/02 08:01:40;;;;;;;0.60;0.60;;;;;;;;;;5004504;28;20552;-73
2022/12/02 08:04:08;;;;;;;0.70;0.60;;;;;;;;;;5010398;28;20576;-73
2022/12/02 08:06:36;;;;;;;0.90;0.90;;;;;;;;;;5007276;28;20493;-73
2022/12/02 08:09:06;;;;;;;0.70;0.70;;;;;;;;;;5008000;28;20477;-74
2022/12/02 08:11:33;;;;;;;1.37;1.27;;;;;;;;;;5012886;28;20449;-74
2022/12/02 08:13:59;;;;;;;0.70;0.70;;;;;;;;;;5013686;28;20968;-74
2022/12/02 08:16:26;;;;;;;0.60;0.60;;;;;;;;;;5008444;28;20525;-75
2022/12/02 08:19:17;;;;;;;0.70;0.70;;;;;;;;;;5005562;28;20453;-75
2022/12/02 08:21:44;;;;;;;0.70;0.60;;;;;;;;;;5007149;28;20472;-75
2022/12/02 08:24:11;;;;;;;1.00;0.90;;;;;;;;;;5030594;28;20480;-75
2022/12/02 08:26:38;;;;;;;0.70;0.70;;;;;;;;;;5012218;28;20465;-75
2022/12/02 08:29:05;;;;;;;0.60;0.60;;;;;;;;;;5013984;28;20441;-76
2022/12/02 08:31:32;;;;;;;0.60;0.60;;;;;;;;;;5002654;28;20445;-76
2022/12/02 08:34:00;;;;;;;0.60;0.60;;;;;;;;;;5029142;28;20457;-77
2022/12/02 08:36:34;;;;;;;2.93;1.17;;;;;;;;;;5026047;28;20426;-76
2022/12/02 08:39:23;;;;;;;1.10;1.10;;;;;;;;;;5012711;28;20444;-75
2022/12/02 08:41:51;;;;;;;1.77;1.67;;;;;;;;;;5004442;28;20472;-76
2022/12/02 08:44:17;;;;;;;1.43;0.90;;;;;;;;;;5028233;28;20448;-75
2022/12/02 08:46:44;;;;;;;0.60;0.60;;;;;;;;;;5012342;28;20454;-75
2022/12/02 08:49:19;;;;;;;0.60;0.50;;;;;;;;;;5012710;28;20459;-74
2022/12/02 08:52:07;;;;;;;0.63;0.63;;;;;;;;;;5012662;28;20421;-75
2022/12/02 08:54:34;;;;;;;0.70;0.67;;;;;;;;;;5005265;28;20492;-76
2022/12/02 08:57:02;;;;;;;0.60;0.60;;;;;;;;;;5008643;28;20918;-77
2022/12/02 08:59:28;;;;;;;0.60;0.60;;;;;;;;;;5027210;28;20444;-75
2022/12/02 09:01:55;;;;;;;0.63;0.63;;;;;;;;;;5013273;28;20465;-75
2022/12/02 09:04:24;;;;;;;0.63;0.63;;;;;;;;;;5000764;28;20435;-76
2022/12/02 09:06:52;;;;;;;0.60;0.50;;;;;;;;;;5003535;28;20545;-75
2022/12/02 09:09:20;;;;;;;0.60;0.60;;;;;;;;;;5027814;28;20473;-76
2022/12/02 09:11:47;;;;;;;0.60;0.60;;;;;;;;;;5012123;28;20545;-76
2022/12/02 09:14:14;;;;;;;0.60;0.60;;;;;;;;;;5025043;28;20437;-77
2022/12/02 09:16:41;;;;;;;0.70;0.70;;;;;;;;;;5005547;28;20844;-77
2022/12/02 09:19:08;;;;;;;0.60;0.50;;;;;;;;;;5026949;28;20453;-76
2022/12/02 09:21:34;;;;;;;0.60;0.60;;;;;;;;;;5011740;28;20446;-77
2022/12/02 09:24:03;;;;;;;0.60;0.60;;;;;;;;;;5027584;28;20525;-78
2022/12/02 09:26:31;;;;;;;0.60;0.60;;;;;;;;;;5028119;28;20545;-76
2022/12/02 09:28:58;;;;;;;0.60;0.50;;;;;;;;;;5026902;28;20826;-76
2022/12/02 09:31:25;;;;;;;0.60;0.60;;;;;;;;;;5011511;28;21419;-76
2022/12/02 09:33:52;;;;;;;1.90;1.73;;;;;;;;;;5002140;28;20524;-77
2022/12/02 09:36:19;;;;;;;0.70;0.70;;;;;;;;;;5001472;28;20466;-78
2022/12/02 09:38:46;;;;;;;0.60;0.50;;;;;;;;;;5004043;28;20487;-77
2022/12/02 09:41:13;;;;;;;1.73;1.63;;;;;;;;;;5022597;28;20453;-75
2022/12/02 09:43:42;;;;;;;0.60;0.50;;;;;;;;;;5011398;28;20481;-75
2022/12/02 09:46:10;;;;;;;0.60;0.53;;;;;;;;;;5012801;28;20456;-75
2022/12/02 09:48:37;;;;;;;0.60;0.50;;;;;;;;;;4999488;28;21068;-76
2022/12/02 09:51:06;;;;;;;0.60;0.60;;;;;;;;;;5024389;28;20823;-76
2022/12/02 09:53:35;;;;;;;0.60;0.50;;;;;;;;;;5026561;28;20446;-76
2022/12/02 09:56:03;;;;;;;0.60;0.60;;;;;;;;;;5024960;28;20469;-77
2022/12/02 09:58:33;;;;;;;0.60;0.60;;;;;;;;;;5027015;28;20445;-76
2022/12/02 10:01:01;;;;;;;0.60;0.50;;;;;;;;;;5027446;28;21271;-75
2022/12/02 10:03:27;;;;;;;0.60;0.60;;;;;;;;;;5010092;28;20485;-76
2022/12/02 10:05:58;;;;;;;1.13;1.07;;;;;;;;;;5003234;28;21159;-76
2022/12/02 10:08:48;;;;;;;0.60;0.60;;;;;;;;;;5012237;28;20445;-76
2022/12/02 10:11:19;;;;;;;1.43;1.00;;;;;;;;;;5026592;28;20836;-76
2022/12/02 10:13:46;;;;;;;0.60;0.60;;;;;;;;;;5027216;28;20447;-75
2022/12/02 10:16:14;;;;;;;0.70;0.60;;;;;;;;;;5026166;28;20450;-74
2022/12/02 10:18:41;;;;;;;0.60;0.60;;;;;;;;;;5011065;28;20548;-75
2022/12/02 10:21:09;;;;;;;0.60;0.60;;;;;;;;;;5009923;28;20454;-75
2022/12/02 10:23:51;;;;;;;0.80;0.70;;;;;;;;;;5027867;28;20535;-75
2022/12/02 10:26:18;;;;;;;0.60;0.50;;;;;;;;;;5024597;28;20438;-76
2022/12/02 10:28:57;;;;;;;0.60;0.50;;;;;;;;;;5026628;28;20462;-75
2022/12/02 10:31:26;;;;;;;0.70;0.70;;;;;;;;;;5011896;28;20452;-76
2022/12/02 10:33:53;;;;;;;0.60;0.50;;;;;;;;;;5023849;28;20569;-75
2022/12/02 10:36:28;;;;;;;0.70;0.70;;;;;;;;;;5009067;28;20515;-75
2022/12/02 10:38:56;;;;;;;0.67;0.67;;;;;;;;;;5006856;28;20527;-74
2022/12/02 10:41:27;;;;;;;0.60;0.60;;;;;;;;;;5000986;28;20447;-74
2022/12/02 10:44:02;;;;;;;0.60;0.60;;;;;;;;;;5010163;28;20846;-74
2022/12/02 10:46:30;;;;;;;0.60;0.60;;;;;;;;;;4988099;28;20800;-76
2022/12/02 10:49:13;;;;;;;0.60;0.60;;;;;;;;;;5027024;28;20483;-74
2022/12/02 10:51:40;;;;;;;0.60;0.50;;;;;;;;;;5010291;28;20479;-75
2022/12/02 10:54:10;;;;;;;0.60;0.60;;;;;;;;;;5024692;28;20435;-74
2022/12/02 10:56:40;;;;;;;0.70;0.70;;;;;;;;;;5010507;28;20476;-76
2022/12/02 10:59:08;;;;;;;0.90;0.90;;;;;;;;;;5009603;28;20949;-75
2022/12/02 11:01:37;;;;;;;1.13;1.13;;;;;;;;;;5010790;28;20450;-75
2022/12/02 11:04:07;;;;;;;0.60;0.53;;;;;;;;;;5026866;28;20466;-75
2022/12/02 11:06:33;;;;;;;0.67;0.60;;;;;;;;;;5019469;28;20453;-75
2022/12/02 11:09:01;;;;;;;0.60;0.60;;;;;;;;;;5010056;28;20880;-73
2022/12/02 11:11:49;;;;;;;0.60;0.60;;;;;;;;;;5025877;28;20525;-75
2022/12/02 11:14:31;;;;;;;0.60;0.60;;;;;;;;;;5023487;28;20434;-73
2022/12/02 11:17:09;;;;;;;6.93;3.20;;;;;;;;;;5000316;28;20937;-74
2022/12/02 11:19:42;;;;;;;0.60;0.60;;;;;;;;;;5008795;28;20437;-76
2022/12/02 11:22:28;;;;;;;3.17;2.00;;;;;;;;;;5024420;28;20446;-74
2022/12/02 11:24:55;;;;;;;0.60;0.60;;;;;;;;;;5025861;28;20446;-74
2022/12/02 11:27:21;;;;;;;0.60;0.60;;;;;;;;;;5012019;28;20430;-74
2022/12/02 11:30:18;;;;;;;0.60;0.60;;;;;;;;;;5010768;28;20824;-74
2022/12/02 11:32:49;;;;;;;0.60;0.60;;;;;;;;;;4929608;29;20833;-75
2022/12/02 11:35:17;;;;;;;1.27;0.90;;;;;;;;;;5000462;28;20501;-76
2022/12/02 11:37:46;;;;;;;2.20;2.10;;;;;;;;;;5024147;28;20946;-73
2022/12/02 11:40:31;;;;;;;1.10;1.00;;;;;;;;;;5008518;28;20934;-75
2022/12/02 11:43:13;;;;;;;0.80;0.80;;;;;;;;;;5008070;28;20843;-74
2022/12/02 11:45:54;;;;;;;0.60;0.57;;;;;;;;;;5025352;28;20995;-75
2022/12/02 11:48:23;;;;;;;0.60;0.60;;;;;;;;;;4993150;28;20461;-74
2022/12/02 11:50:50;;;;;;;3.90;1.40;;;;;;;;;;5009585;28;20429;-75
2022/12/02 11:53:18;;;;;;;0.60;0.50;;;;;;;;;;5009093;28;20449;-74
2022/12/02 11:55:48;;;;;;;1.67;1.37;;;;;;;;;;5009734;28;20442;-75
2022/12/02 11:58:18;;;;;;;0.60;0.60;;;;;;;;;;5022917;28;20992;-75
2022/12/02 12:01:01;;;;;;;0.60;0.60;;;;;;;;;;5008555;28;20457;-74
2022/12/02 12:03:30;;;;;;;0.60;0.60;;;;;;;;;;5010810;28;20550;-74
2022/12/02 12:06:06;;;;;;;0.60;0.60;;;;;;;;;;5008661;28;20444;-74
2022/12/02 12:08:33;;;;;;;0.67;0.67;;;;;;;;;;5025821;28;20449;-74
2022/12/02 12:11:14;;;;;;;0.60;0.60;;;;;;;;;;5007127;28;20507;-74
2022/12/02 12:14:05;;;;;;;0.60;0.60;;;;;;;;;;5007403;28;20461;-75
2022/12/02 12:16:32;;;;;;;0.60;0.60;;;;;;;;;;4997674;28;20464;-74
2022/12/02 12:19:01;;;;;;;0.70;0.70;;;;;;;;;;5009320;28;20800;-75
2022/12/02 12:21:43;;;;;;;1.27;1.17;;;;;;;;;;5024303;28;20445;-75
2022/12/02 12:24:40;;;;;;;0.60;0.60;;;;;;;;;;5020291;28;20477;-73
2022/12/02 12:27:11;;;;;;;0.60;0.60;;;;;;;;;;4973069;28;20464;-73
2022/12/02 12:29:39;;;;;;;0.60;0.60;;;;;;;;;;5001054;28;20529;-75
2022/12/02 12:32:06;;;;;;;0.60;0.60;;;;;;;;;;5021742;28;20460;-74
2022/12/02 12:34:35;;;;;;;0.60;0.60;;;;;;;;;;5008034;28;20452;-75
2022/12/02 12:37:03;;;;;;;0.70;0.70;;;;;;;;;;5023270;28;20449;-74
2022/12/02 12:39:30;;;;;;;0.70;0.70;;;;;;;;;;5024347;28;20449;-75
2022/12/02 12:41:57;;;;;;;0.60;0.60;;;;;;;;;;5010046;28;20444;-76
2022/12/02 12:44:26;;;;;;;0.80;0.80;;;;;;;;;;5023504;28;20910;-74
2022/12/02 12:46:58;;;;;;;0.70;0.70;;;;;;;;;;5023035;28;20540;-76
2022/12/02 12:49:26;;;;;;;0.63;0.63;;;;;;;;;;4998049;28;20467;-75
2022/12/02 12:51:55;;;;;;;0.60;0.60;;;;;;;;;;5008538;28;20460;-73
2022/12/02 12:54:22;;;;;;;0.60;0.60;;;;;;;;;;5021837;28;20450;-74
2022/12/02 12:56:49;;;;;;;0.80;0.80;;;;;;;;;;5010541;28;20441;-76
2022/12/02 12:59:16;;;;;;;0.70;0.70;;;;;;;;;;5013819;28;20433;-75
2022/12/02 13:01:44;;;;;;;0.60;0.60;;;;;;;;;;5014055;28;20445;-73
2022/12/02 13:04:11;;;;;;;0.60;0.60;;;;;;;;;;4998787;28;20590;-74
2022/12/02 13:06:38;;;;;;;0.63;0.63;;;;;;;;;;5011549;28;20472;-73
2022/12/02 13:09:11;;;;;;;0.60;0.60;;;;;;;;;;5013925;28;20476;-73
2022/12/02 13:11:39;;;;;;;0.60;0.60;;;;;;;;;;5013392;28;20453;-73
2022/12/02 13:14:06;;;;;;;0.60;0.60;;;;;;;;;;5011068;28;20430;-74
2022/12/02 13:16:33;;;;;;;0.60;0.60;;;;;;;;;;5012884;28;20426;-72
2022/12/02 13:19:00;;;;;;;0.63;0.60;;;;;;;;;;5000720;28;20490;-72
2022/12/02 13:21:27;;;;;;;0.60;0.60;;;;;;;;;;5012561;28;20432;-73
2022/12/02 13:23:54;;;;;;;1.40;1.30;;;;;;;;;;5010625;28;21032;-73
2022/12/02 13:26:22;;;;;;;0.63;0.63;;;;;;;;;;5027073;28;20436;-73
2022/12/02 13:28:51;;;;;;;0.60;0.60;;;;;;;;;;5011738;28;20869;-72
2022/12/02 13:31:19;;;;;;;0.70;0.70;;;;;;;;;;5002949;28;20577;-73
2022/12/02 13:33:47;;;;;;;0.70;0.70;;;;;;;;;;5022153;28;20557;-72
2022/12/02 13:36:14;;;;;;;0.60;0.60;;;;;;;;;;5024888;28;20985;-73
2022/12/02 13:38:40;;;;;;;0.60;0.60;;;;;;;;;;5012809;28;20533;-72
2022/12/02 13:41:07;;;;;;;0.70;0.70;;;;;;;;;;5011443;28;20457;-71
2022/12/02 13:43:36;;;;;;;0.90;0.90;;;;;;;;;;5025759;28;20535;-73
2022/12/02 13:46:03;;;;;;;0.60;0.60;;;;;;;;;;5026509;28;20783;-72
2022/12/02 13:48:30;;;;;;;2.50;1.90;;;;;;;;;;5012396;28;20527;-71
2022/12/02 13:50:57;;;;;;;0.60;0.60;;;;;;;;;;5028536;28;20430;-72
2022/12/02 13:53:24;;;;;;;0.70;0.70;;;;;;;;;;5026150;28;20449;-73
2022/12/02 13:55:51;;;;;;;0.60;0.60;;;;;;;;;;5025724;28;20460;-74
2022/12/02 13:58:18;;;;;;;0.60;0.60;;;;;;;;;;5027503;28;20943;-73
2022/12/02 14:00:46;;;;;;;0.63;0.60;;;;;;;;;;5013155;28;20426;-73
2022/12/02 14:03:13;;;;;;;1.30;1.20;;;;;;;;;;5005392;28;20535;-74
2022/12/02 14:05:40;;;;;;;0.90;0.90;;;;;;;;;;5022420;28;20453;-74
2022/12/02 14:08:08;;;;;;;0.60;0.60;;;;;;;;;;5026942;28;20445;-74
2022/12/02 14:10:35;;;;;;;0.60;0.60;;;;;;;;;;5028137;28;20442;-74
2022/12/02 14:13:01;;;;;;;0.60;0.60;;;;;;;;;;5024754;28;20446;-74
2022/12/02 14:15:28;;;;;;;0.70;0.70;;;;;;;;;;5005537;28;20456;-75
2022/12/02 14:17:59;;;;;;;0.60;0.60;;;;;;;;;;5005292;28;20484;-72
2022/12/02 14:20:26;;;;;;;0.63;0.60;;;;;;;;;;5011700;28;20430;-76
2022/12/02 14:22:53;;;;;;;0.60;0.60;;;;;;;;;;5005706;28;20503;-74
2022/12/02 14:25:20;;;;;;;0.60;0.60;;;;;;;;;;5023286;28;21090;-74
2022/12/02 14:27:47;;;;;;;0.90;0.90;;;;;;;;;;4994266;28;20437;-75
2022/12/02 14:30:14;;;;;;;0.63;0.60;;;;;;;;;;5026818;28;20449;-74
2022/12/02 14:32:41;;;;;;;1.47;1.37;;;;;;;;;;5026674;28;20482;-75
2022/12/02 14:35:10;;;;;;;0.60;0.60;;;;;;;;;;5007971;28;20844;-74
2022/12/02 14:37:37;;;;;;;0.70;0.70;;;;;;;;;;5025845;28;20510;-74
2022/12/02 14:40:06;;;;;;;0.60;0.60;;;;;;;;;;4997450;28;20801;-75
2022/12/02 14:42:34;;;;;;;0.70;0.60;;;;;;;;;;5001516;28;20555;-75
2022/12/02 14:45:06;;;;;;;1.73;1.63;;;;;;;;;;5010293;28;20556;-75
2022/12/02 14:47:33;;;;;;;0.60;0.60;;;;;;;;;;5026354;28;20560;-75
2022/12/02 14:50:00;;;;;;;1.07;1.07;;;;;;;;;;5009477;28;20453;-74
2022/12/02 14:52:34;;;;;;;0.70;0.60;;;;;;;;;;5009215;28;20503;-74
2022/12/02 14:55:01;;;;;;;0.70;0.70;;;;;;;;;;5010538;28;20422;-74
2022/12/02 14:57:28;;;;;;;0.60;0.60;;;;;;;;;;5006828;28;20477;-75
2022/12/02 15:00:14;;;;;;;0.60;0.60;;;;;;;;;;5007830;28;20452;-74
2022/12/02 15:02:41;;;;;;;0.60;0.60;;;;;;;;;;5002095;28;20467;-74
2022/12/02 15:05:09;;;;;;;0.60;0.60;;;;;;;;;;5009460;28;20816;-74